createdAt,value
2022-11-21T00:00:18.303Z,1.00
2022-11-21T00:02:44.980Z,1.00
2022-11-21T00:05:11.983Z,0.88
2022-11-21T00:07:38.635Z,0.90
2022-11-21T00:10:05.538Z,0.90
2022-11-21T00:12:32.288Z,1.25
2022-11-21T00:14:58.862Z,0.90
2022-11-21T00:17:25.487Z,0.80
2022-11-21T00:19:52.183Z,0.98
2022-11-21T00:22:18.874Z,0.85
2022-11-21T00:24:45.615Z,0.88
2022-11-21T00:27:12.252Z,0.73
2022-11-21T00:29:38.948Z,0.93
2022-11-21T00:32:05.641Z,0.80
2022-11-21T00:34:32.244Z,1.00
2022-11-21T00:36:58.884Z,0.95
2022-11-21T00:39:25.519Z,1.08
2022-11-21T00:41:52.098Z,0.80
2022-11-21T00:44:18.751Z,0.90
2022-11-21T00:46:45.369Z,0.77
2022-11-21T00:49:11.983Z,0.80
2022-11-21T00:51:38.622Z,0.93
2022-11-21T00:54:05.288Z,0.80
2022-11-21T00:56:31.982Z,0.85
2022-11-21T00:58:58.626Z,0.77
2022-11-21T01:01:25.368Z,0.90
2022-11-21T01:03:51.966Z,0.85
2022-11-21T01:06:18.653Z,0.90
2022-11-21T01:08:45.611Z,1.23
2022-11-21T01:11:14.038Z,1.00
2022-11-21T01:13:41.189Z,0.70
2022-11-21T01:16:09.797Z,0.70
2022-11-21T01:18:37.137Z,1.00
2022-11-21T01:21:05.136Z,1.05
2022-11-21T01:23:31.804Z,0.90
2022-11-21T01:26:05.675Z,1.10
2022-11-21T01:28:32.652Z,0.70
2022-11-21T01:31:06.582Z,0.80
2022-11-21T01:33:33.528Z,0.93
2022-11-21T01:36:09.183Z,0.90
2022-11-21T01:38:35.901Z,0.60
2022-11-21T01:41:02.542Z,0.90
2022-11-21T01:43:29.133Z,1.02
2022-11-21T01:45:57.455Z,0.82
2022-11-21T01:48:33.773Z,0.90
2022-11-21T01:51:03.337Z,0.70
2022-11-21T01:53:30.009Z,1.00
2022-11-21T01:55:56.630Z,0.70
2022-11-21T01:58:23.921Z,0.65
2022-11-21T02:00:50.727Z,0.73
2022-11-21T02:03:19.596Z,1.05
2022-11-21T02:05:46.636Z,0.80
2022-11-21T02:08:18.628Z,0.68
2022-11-21T02:10:54.324Z,0.50
2022-11-21T02:13:22.785Z,0.68
2022-11-21T02:15:49.611Z,0.80
2022-11-21T02:18:16.268Z,0.70
2022-11-21T02:20:45.221Z,0.65
2022-11-21T02:23:23.454Z,0.73
2022-11-21T02:25:51.165Z,0.50
2022-11-21T02:28:20.286Z,0.73
2022-11-21T02:30:46.927Z,0.82
2022-11-21T02:33:13.904Z,0.52
2022-11-21T02:35:40.554Z,0.80
2022-11-21T02:38:14.796Z,0.80
2022-11-21T02:40:43.348Z,0.80
2022-11-21T02:43:21.993Z,0.80
2022-11-21T02:45:48.622Z,0.55
2022-11-21T02:48:15.532Z,0.70
2022-11-21T02:50:43.181Z,0.85
2022-11-21T02:53:11.221Z,0.77
2022-11-21T02:55:38.294Z,1.15
2022-11-21T02:58:05.797Z,0.70
2022-11-21T03:00:33.792Z,0.88
2022-11-21T03:03:00.411Z,0.77
2022-11-21T03:05:27.495Z,0.77
2022-11-21T03:07:54.176Z,0.70
2022-11-21T03:10:20.815Z,1.10
2022-11-21T03:12:47.435Z,0.80
2022-11-21T03:15:14.811Z,0.93
2022-11-21T03:17:41.542Z,0.60
2022-11-21T03:20:08.767Z,0.95
2022-11-21T03:22:35.415Z,0.63
2022-11-21T03:25:02.062Z,0.90
2022-11-21T03:27:28.775Z,0.90
2022-11-21T03:29:55.435Z,0.52
2022-11-21T03:32:22.181Z,0.60
2022-11-21T03:34:48.902Z,0.82
2022-11-21T03:37:15.577Z,0.90
2022-11-21T03:39:42.189Z,0.90
2022-11-21T03:42:08.851Z,0.63
2022-11-21T03:44:35.484Z,0.60
2022-11-21T03:47:02.173Z,0.65
2022-11-21T03:49:28.823Z,0.82
2022-11-21T03:51:55.484Z,0.80
2022-11-21T03:54:22.168Z,0.60
2022-11-21T03:56:48.746Z,1.00
2022-11-21T03:59:15.381Z,0.73
2022-11-21T04:01:42.115Z,1.10
2022-11-21T04:04:08.810Z,0.70
2022-11-21T04:06:35.524Z,0.60
2022-11-21T04:09:02.193Z,0.88
2022-11-21T04:11:28.865Z,0.68
2022-11-21T04:13:55.514Z,0.57
2022-11-21T04:16:22.114Z,0.75
2022-11-21T04:18:48.744Z,0.98
2022-11-21T04:21:15.342Z,0.70
2022-11-21T04:23:41.929Z,1.10
2022-11-21T04:26:08.544Z,0.70
2022-11-21T04:28:35.170Z,0.50
2022-11-21T04:31:05.777Z,0.90
2022-11-21T04:33:35.569Z,0.80
2022-11-21T04:36:02.260Z,0.68
2022-11-21T04:38:28.941Z,0.60
2022-11-21T04:40:55.566Z,0.63
2022-11-21T04:43:22.217Z,0.70
2022-11-21T04:45:48.865Z,0.90
2022-11-21T04:48:15.535Z,0.75
2022-11-21T04:50:42.203Z,0.80
2022-11-21T04:53:08.844Z,0.95
2022-11-21T04:55:35.522Z,0.90
2022-11-21T04:58:02.193Z,1.00
2022-11-21T05:00:28.894Z,0.80
2022-11-21T05:02:55.516Z,0.70
2022-11-21T05:05:22.213Z,1.30
2022-11-21T05:07:48.862Z,0.93
2022-11-21T05:10:15.518Z,0.80
2022-11-21T05:13:00.756Z,0.80
2022-11-21T05:15:27.639Z,1.10
2022-11-21T05:17:54.453Z,1.90
2022-11-21T05:20:21.068Z,1.17
2022-11-21T05:22:51.244Z,1.50
2022-11-21T05:25:17.883Z,0.85
2022-11-21T05:27:44.614Z,0.95
2022-11-21T05:30:11.560Z,1.00
2022-11-21T05:32:38.224Z,1.10
2022-11-21T05:35:05.237Z,0.95
2022-11-21T05:37:31.955Z,0.75
2022-11-21T05:39:58.754Z,0.95
2022-11-21T05:42:43.826Z,0.80
2022-11-21T05:45:10.577Z,0.70
2022-11-21T05:47:37.289Z,0.60
2022-11-21T05:50:04.197Z,0.80
2022-11-21T05:52:30.831Z,0.80
2022-11-21T05:54:57.441Z,0.80
2022-11-21T05:57:24.119Z,0.98
2022-11-21T05:59:50.729Z,1.00
2022-11-21T06:02:35.905Z,0.85
2022-11-21T06:05:02.680Z,0.77
2022-11-21T06:07:29.474Z,0.80
2022-11-21T06:09:56.244Z,0.80
2022-11-21T06:12:25.691Z,0.93
2022-11-21T06:14:52.604Z,1.20
2022-11-21T06:17:19.448Z,2.53
2022-11-21T06:19:46.080Z,1.50
2022-11-21T06:22:12.678Z,1.33
2022-11-21T06:24:39.363Z,1.17
2022-11-21T06:27:05.992Z,1.10
2022-11-21T06:29:32.646Z,1.40
2022-11-21T06:31:59.281Z,1.30
2022-11-21T06:34:27.038Z,1.05
2022-11-21T06:36:54.184Z,0.88
2022-11-21T06:39:20.821Z,1.00
2022-11-21T06:41:51.355Z,1.08
2022-11-21T06:44:18.531Z,1.13
2022-11-21T06:46:50.778Z,1.00
2022-11-21T06:49:18.108Z,1.30
2022-11-21T06:51:44.799Z,0.80
2022-11-21T06:54:16.287Z,0.90
2022-11-21T06:56:43.744Z,1.02
2022-11-21T06:59:10.435Z,1.00
2022-11-21T07:01:37.223Z,1.15
2022-11-21T07:04:03.984Z,1.00
2022-11-21T07:06:30.603Z,1.83
2022-11-21T07:09:31.174Z,1.00
2022-11-21T07:11:44.113Z,1.20
2022-11-21T07:14:10.705Z,0.95
2022-11-21T07:16:37.352Z,1.25
2022-11-21T07:19:03.940Z,0.70
2022-11-21T07:21:30.594Z,0.70
2022-11-21T07:23:57.213Z,0.90
2022-11-21T07:26:23.812Z,0.90
2022-11-21T07:28:50.522Z,1.25
2022-11-21T07:31:17.199Z,0.70
2022-11-21T07:33:44.012Z,0.88
2022-11-21T07:36:11.273Z,0.70
2022-11-21T07:38:38.980Z,0.80
2022-11-21T07:41:05.590Z,0.80
2022-11-21T07:43:32.200Z,1.20
2022-11-21T07:45:58.868Z,0.80
2022-11-21T07:48:25.612Z,0.80
2022-11-21T07:50:52.348Z,0.68
2022-11-21T07:53:19.127Z,1.00
2022-11-21T07:55:48.758Z,0.82
2022-11-21T07:58:16.094Z,1.02
2022-11-21T08:00:42.973Z,1.02
2022-11-21T08:03:12.832Z,1.20
2022-11-21T08:05:40.762Z,0.90
2022-11-21T08:08:07.503Z,0.63
2022-11-21T08:10:37.412Z,0.80
2022-11-21T08:13:04.143Z,0.80
2022-11-21T08:15:30.813Z,0.77
2022-11-21T08:17:57.518Z,0.80
2022-11-21T08:20:24.285Z,0.70
2022-11-21T08:22:51.094Z,0.68
2022-11-21T08:25:17.887Z,0.70
2022-11-21T08:27:44.574Z,0.90
2022-11-21T08:30:11.988Z,0.80
2022-11-21T08:32:38.690Z,0.95
2022-11-21T08:35:05.589Z,0.70
2022-11-21T08:37:32.264Z,0.70
2022-11-21T08:40:02.407Z,0.90
2022-11-21T08:42:29.238Z,0.88
2022-11-21T08:44:55.993Z,0.68
2022-11-21T08:47:22.666Z,0.90
2022-11-21T08:49:49.533Z,0.80
2022-11-21T08:52:17.465Z,0.70
2022-11-21T08:54:44.742Z,0.60
2022-11-21T08:57:11.694Z,0.60
2022-11-21T08:59:38.449Z,0.65
2022-11-21T09:02:06.263Z,0.45
2022-11-21T09:04:32.975Z,0.70
2022-11-21T09:06:59.830Z,0.60
2022-11-21T09:09:28.728Z,0.93
2022-11-21T09:11:55.413Z,0.73
2022-11-21T09:14:41.033Z,1.00
2022-11-21T09:17:30.483Z,0.80
2022-11-21T09:19:57.316Z,1.05
2022-11-21T09:22:25.138Z,0.95
2022-11-21T09:24:52.045Z,1.00
2022-11-21T09:27:20.424Z,1.15
2022-11-21T09:29:52.439Z,1.20
2022-11-21T09:32:20.893Z,1.13
2022-11-21T09:34:47.546Z,1.20
2022-11-21T09:37:14.172Z,1.40
2022-11-21T09:39:40.872Z,1.15
2022-11-21T09:42:16.361Z,1.33
2022-11-21T09:45:01.541Z,0.98
2022-11-21T09:47:32.897Z,1.30
2022-11-21T09:50:04.690Z,1.13
2022-11-21T09:52:39.720Z,1.33
2022-11-21T09:55:14.124Z,1.02
2022-11-21T09:57:40.829Z,1.35
2022-11-21T10:00:14.733Z,1.42
2022-11-21T10:02:41.516Z,1.50
2022-11-21T10:05:12.820Z,1.30
2022-11-21T10:07:39.800Z,1.60
2022-11-21T10:10:24.859Z,1.50
2022-11-21T10:12:51.525Z,1.88
2022-11-21T10:15:29.383Z,2.92
2022-11-21T10:17:55.963Z,3.38
2022-11-21T10:20:22.876Z,5.22
2022-11-21T10:22:58.757Z,5.03
2022-11-21T10:25:28.287Z,2.97
2022-11-21T10:28:07.105Z,2.70
2022-11-21T10:30:33.852Z,3.65
2022-11-21T10:33:04.695Z,4.25
2022-11-21T10:35:36.540Z,4.15
2022-11-21T10:38:11.637Z,5.28
2022-11-21T10:40:41.396Z,5.60
2022-11-21T10:43:42.951Z,5.32
2022-11-21T10:46:09.909Z,5.80
2022-11-21T10:48:36.620Z,5.53
2022-11-21T10:51:09.433Z,6.22
2022-11-21T10:53:54.477Z,5.05
2022-11-21T10:56:22.186Z,5.45
2022-11-21T10:58:56.709Z,4.40
2022-11-21T11:01:23.503Z,5.82
2022-11-21T11:06:56.124Z,5.55
2022-11-21T11:09:24.134Z,4.97
2022-11-21T11:11:50.813Z,5.18
2022-11-21T11:14:25.766Z,4.90
2022-11-21T11:16:52.535Z,4.68
2022-11-21T11:19:34.008Z,4.57
2022-11-21T11:22:05.280Z,4.90
2022-11-21T11:24:31.972Z,4.43
2022-11-21T11:27:00.023Z,5.30
2022-11-21T11:29:30.278Z,4.18
2022-11-21T11:32:00.224Z,5.60
2022-11-21T11:34:37.292Z,4.30
2022-11-21T11:37:22.845Z,4.55
2022-11-21T11:39:58.618Z,3.60
2022-11-21T11:43:06.249Z,3.65
2022-11-21T11:46:03.734Z,3.63
2022-11-21T11:48:31.001Z,4.22
2022-11-21T11:51:01.851Z,3.33
2022-11-21T11:53:33.833Z,3.90
2022-11-21T11:56:17.678Z,3.50
2022-11-21T11:58:44.371Z,3.55
2022-11-21T12:01:13.527Z,3.35
2022-11-21T12:03:40.258Z,3.47
2022-11-21T12:06:11.162Z,2.90
2022-11-21T12:09:04.294Z,2.72
2022-11-21T12:11:53.914Z,3.05
2022-11-21T12:14:48.876Z,3.20
2022-11-21T12:17:17.727Z,3.20
2022-11-21T12:19:44.582Z,2.75
2022-11-21T12:22:12.001Z,2.72
2022-11-21T12:24:43.029Z,2.83
2022-11-21T12:27:27.125Z,3.15
2022-11-21T12:30:19.001Z,2.60
2022-11-21T12:32:55.725Z,2.85
2022-11-21T12:35:36.448Z,2.47
2022-11-21T12:38:06.209Z,2.25
2022-11-21T12:40:45.159Z,2.50
2022-11-21T12:43:17.808Z,2.45
2022-11-21T12:45:52.574Z,2.40
2022-11-21T12:48:47.285Z,2.70
2022-11-21T12:51:35.656Z,1.90
2022-11-21T12:54:31.459Z,2.47
2022-11-21T12:57:02.801Z,2.08
2022-11-21T12:59:31.238Z,2.30
2022-11-21T13:01:58.024Z,2.25
2022-11-21T13:04:34.163Z,2.03
2022-11-21T13:07:02.328Z,2.10
2022-11-21T13:09:32.349Z,2.15
2022-11-21T13:12:02.095Z,2.13
2022-11-21T13:14:36.565Z,1.73
2022-11-21T13:17:09.514Z,1.65
2022-11-21T13:19:41.951Z,2.00
2022-11-21T13:22:28.581Z,2.08
2022-11-21T13:24:56.450Z,1.75
2022-11-21T13:27:23.071Z,1.85
2022-11-21T13:30:08.264Z,1.85
2022-11-21T13:32:41.985Z,1.73
2022-11-21T13:35:14.984Z,1.65
2022-11-21T13:37:47.583Z,1.63
2022-11-21T13:41:00.456Z,1.80
2022-11-21T13:43:35.343Z,1.50
2022-11-21T13:46:02.471Z,1.38
2022-11-21T13:48:32.011Z,1.63
2022-11-21T13:51:14.046Z,1.33
2022-11-21T13:53:40.744Z,1.40
2022-11-21T13:56:26.487Z,0.82
2022-11-21T13:59:12.200Z,1.33
2022-11-21T14:01:57.469Z,0.95
2022-11-21T14:04:24.439Z,1.15
2022-11-21T14:06:51.212Z,1.10
2022-11-21T14:09:23.870Z,1.20
2022-11-21T14:11:52.207Z,1.15
2022-11-21T14:14:24.934Z,1.30
2022-11-21T14:16:55.046Z,1.23
2022-11-21T14:19:21.890Z,1.45
2022-11-21T14:21:49.243Z,0.95
2022-11-21T14:24:17.957Z,1.25
2022-11-21T14:26:47.191Z,1.48
2022-11-21T14:29:17.063Z,1.25
2022-11-21T14:31:47.781Z,1.00
2022-11-21T14:34:23.896Z,1.17
2022-11-21T14:36:50.639Z,1.10
2022-11-21T14:42:05.601Z,1.35
2022-11-21T14:44:32.524Z,1.45
2022-11-21T14:47:08.482Z,1.17
2022-11-21T14:49:35.190Z,1.52
2022-11-21T14:52:01.884Z,1.95
2022-11-21T14:54:33.396Z,1.65
2022-11-21T14:57:06.333Z,1.40
2022-11-21T14:59:36.422Z,1.23
2022-11-21T15:02:07.127Z,1.52
2022-11-21T15:04:35.483Z,1.25
2022-11-21T15:07:03.106Z,1.65
2022-11-21T15:10:26.941Z,1.10
2022-11-21T15:12:20.931Z,2.03
2022-11-21T15:14:53.171Z,1.02
2022-11-21T15:17:21.802Z,1.55
2022-11-21T15:22:49.649Z,2.08
2022-11-21T15:25:20.459Z,1.73
2022-11-21T15:27:48.029Z,1.88
2022-11-21T15:30:14.687Z,1.88
2022-11-21T15:33:00.129Z,1.40
2022-11-21T15:35:39.732Z,1.60
2022-11-21T15:38:34.256Z,1.95
2022-11-21T15:41:02.841Z,1.70
2022-11-21T15:43:48.849Z,2.10
2022-11-21T15:46:20.148Z,2.05
2022-11-21T15:48:47.754Z,1.58
2022-11-21T15:51:14.805Z,1.05
2022-11-21T15:53:41.715Z,1.50
2022-11-21T15:56:10.155Z,2.05
2022-11-21T15:57:13.008Z,2.03
2022-11-21T15:58:36.842Z,1.45
2022-11-21T16:01:03.617Z,2.00
2022-11-21T16:03:30.267Z,1.77
2022-11-21T16:05:56.919Z,1.80
2022-11-21T16:08:23.525Z,2.08
2022-11-21T16:10:50.113Z,1.83
2022-11-21T16:13:16.780Z,1.50
2022-11-21T16:15:43.356Z,1.65
2022-11-21T16:18:10.169Z,1.58
2022-11-21T16:20:36.815Z,1.65
2022-11-21T16:23:04.097Z,1.60
2022-11-21T16:25:30.811Z,2.00
2022-11-21T16:27:59.776Z,1.70
2022-11-21T16:30:27.451Z,1.75
2022-11-21T16:32:56.289Z,1.23
2022-11-21T16:35:23.708Z,1.40
2022-11-21T16:37:52.265Z,1.48
2022-11-21T16:40:18.945Z,1.65
2022-11-21T16:42:45.549Z,1.55
2022-11-21T16:45:12.141Z,1.42
2022-11-21T16:47:39.661Z,1.67
2022-11-21T16:50:08.649Z,1.73
2022-11-21T16:52:38.399Z,2.28
2022-11-21T16:55:05.462Z,1.85
2022-11-21T16:57:32.701Z,1.98
2022-11-21T17:00:00.549Z,2.03
2022-11-21T17:02:27.493Z,2.17
2022-11-21T17:04:54.166Z,1.90
2022-11-21T17:07:20.793Z,2.00
2022-11-21T17:09:47.387Z,1.50
2022-11-21T17:12:14.060Z,1.55
2022-11-21T17:14:40.759Z,1.35
2022-11-21T17:17:07.421Z,1.60
2022-11-21T17:19:34.042Z,1.48
2022-11-21T17:22:00.892Z,1.83
2022-11-21T17:24:27.969Z,1.60
2022-11-21T17:26:54.956Z,2.03
2022-11-21T17:29:21.657Z,2.25
2022-11-21T17:31:49.630Z,2.10
2022-11-21T17:34:16.244Z,1.60
2022-11-21T17:36:42.902Z,1.80
2022-11-21T17:39:09.866Z,1.60
2022-11-21T17:41:38.035Z,1.58
2022-11-21T17:44:04.817Z,2.05
2022-11-21T17:46:31.897Z,1.77
2022-11-21T17:48:59.304Z,2.42
2022-11-21T17:51:27.683Z,2.67
2022-11-21T17:53:54.505Z,2.25
2022-11-21T17:56:22.841Z,1.88
2022-11-21T17:58:50.267Z,1.90
2022-11-21T18:01:20.645Z,1.63
2022-11-21T18:03:48.517Z,1.90
2022-11-21T18:06:16.137Z,2.58
2022-11-21T18:08:43.733Z,1.85
2022-11-21T18:11:11.477Z,1.58
2022-11-21T18:13:38.833Z,2.20
2022-11-21T18:16:13.986Z,1.83
2022-11-21T18:18:40.624Z,2.05
2022-11-21T18:21:08.697Z,1.77
2022-11-21T18:23:35.623Z,2.30
2022-11-21T18:26:06.654Z,2.25
2022-11-21T18:28:33.562Z,2.08
2022-11-21T18:31:15.695Z,2.10
2022-11-21T18:33:42.782Z,2.47
2022-11-21T18:36:10.087Z,2.53
2022-11-21T18:38:48.845Z,2.40
2022-11-21T18:41:22.562Z,2.00
2022-11-21T18:43:52.449Z,2.00
2022-11-21T18:46:19.488Z,1.88
2022-11-21T18:49:02.167Z,1.77
2022-11-21T18:51:31.822Z,1.60
2022-11-21T18:54:03.384Z,1.73
2022-11-21T18:56:30.381Z,2.00
2022-11-21T18:58:58.822Z,1.40
2022-11-21T19:01:27.036Z,1.50
2022-11-21T19:03:54.405Z,1.98
2022-11-21T19:06:22.146Z,1.23
2022-11-21T19:08:50.774Z,1.33
2022-11-21T19:11:17.742Z,2.25
2022-11-21T19:13:44.746Z,1.80
2022-11-21T19:16:12.362Z,1.70
2022-11-21T19:18:41.750Z,1.85
2022-11-21T19:21:11.170Z,1.90
2022-11-21T19:23:39.411Z,1.63
2022-11-21T19:26:07.469Z,1.40
2022-11-21T19:28:34.248Z,2.17
2022-11-21T19:31:02.001Z,2.20
2022-11-21T19:33:29.330Z,2.30
2022-11-21T19:35:59.839Z,2.35
2022-11-21T19:38:26.654Z,1.90
2022-11-21T19:41:12.133Z,1.90
2022-11-21T19:43:49.143Z,1.98
2022-11-21T19:46:17.107Z,2.30
2022-11-21T19:48:46.742Z,2.22
2022-11-21T19:51:13.551Z,2.50
2022-11-21T19:53:40.251Z,2.25
2022-11-21T19:56:07.903Z,2.40
2022-11-21T19:58:34.581Z,2.17
2022-11-21T20:01:10.784Z,1.80
2022-11-21T20:03:38.338Z,1.88
2022-11-21T20:06:09.480Z,1.65
2022-11-21T20:08:36.147Z,1.73
2022-11-21T20:11:06.656Z,2.08
2022-11-21T20:13:33.330Z,1.77
2022-11-21T20:16:00.409Z,1.95
2022-11-21T20:18:28.796Z,1.35
2022-11-21T20:20:55.566Z,1.90
2022-11-21T20:23:22.331Z,1.55
2022-11-21T20:25:52.062Z,1.52
2022-11-21T20:28:19.029Z,1.58
2022-11-21T20:30:45.750Z,1.40
2022-11-21T20:33:12.440Z,1.55
2022-11-21T20:35:39.875Z,1.90
2022-11-21T20:38:06.543Z,1.83
2022-11-21T20:40:33.216Z,1.90
2022-11-21T20:42:59.922Z,1.80
2022-11-21T20:46:07.115Z,1.95
2022-11-21T20:48:18.753Z,2.33
2022-11-21T20:54:01.653Z,2.10
2022-11-21T20:56:27.728Z,2.17
2022-11-21T20:58:54.440Z,1.88
2022-11-21T21:01:21.449Z,2.10
2022-11-21T21:03:48.408Z,1.95
2022-11-21T21:06:15.590Z,2.65
2022-11-21T21:08:42.303Z,1.95
2022-11-21T21:11:36.852Z,1.67
2022-11-21T21:14:02.580Z,2.03
2022-11-21T21:16:30.534Z,2.15
2022-11-21T21:18:57.283Z,1.80
2022-11-21T21:21:24.676Z,2.10
2022-11-21T21:24:01.917Z,1.95
2022-11-21T21:26:38.568Z,2.17
2022-11-21T21:29:08.351Z,2.00
2022-11-21T21:31:35.020Z,2.05
2022-11-21T21:34:02.552Z,2.45
2022-11-21T21:36:30.208Z,2.20
2022-11-21T21:38:57.374Z,1.88
2022-11-21T21:41:24.624Z,2.35
2022-11-21T21:43:52.481Z,2.47
2022-11-21T21:46:22.089Z,1.63
2022-11-21T21:48:48.757Z,2.10
2022-11-21T21:51:16.585Z,1.67
2022-11-21T21:53:43.760Z,2.20
2022-11-21T21:56:10.807Z,2.05
2022-11-21T21:58:39.023Z,2.00
2022-11-21T22:01:09.253Z,2.00
2022-11-21T22:03:36.115Z,1.90
2022-11-21T22:06:03.733Z,1.70
2022-11-21T22:08:31.700Z,2.05
2022-11-21T22:11:18.058Z,2.10
2022-11-21T22:13:45.666Z,2.10
2022-11-21T22:16:14.264Z,2.10
2022-11-21T22:18:41.303Z,2.00
2022-11-21T22:21:17.056Z,2.08
2022-11-21T22:24:09.319Z,2.13
2022-11-21T22:26:30.951Z,2.55
2022-11-21T22:28:57.580Z,2.13
2022-11-21T22:31:24.199Z,2.20
2022-11-21T22:33:50.807Z,2.42
2022-11-21T22:36:18.121Z,2.40
2022-11-21T22:38:45.073Z,2.50
2022-11-21T22:41:15.709Z,2.40
2022-11-21T22:43:45.080Z,2.92
2022-11-21T22:46:12.811Z,2.65
2022-11-21T22:48:39.652Z,2.65
2022-11-21T22:51:06.659Z,3.03
2022-11-21T22:53:38.486Z,3.45
2022-11-21T22:56:07.726Z,3.78
2022-11-21T22:58:35.723Z,3.50
2022-11-21T23:01:09.167Z,3.67
2022-11-21T23:03:36.017Z,4.05
2022-11-21T23:06:06.855Z,3.83
2022-11-21T23:08:34.053Z,3.80
2022-11-21T23:11:06.772Z,3.67
2022-11-21T23:13:33.944Z,4.10
2022-11-21T23:16:00.647Z,4.05
2022-11-21T23:18:27.273Z,3.83
2022-11-21T23:20:53.894Z,3.58
2022-11-21T23:23:20.536Z,3.50
2022-11-21T23:25:47.293Z,3.58
2022-11-21T23:28:13.985Z,3.38
2022-11-21T23:30:40.563Z,3.30
2022-11-21T23:33:07.440Z,3.45
2022-11-21T23:35:34.095Z,3.65
2022-11-21T23:38:00.736Z,3.35
2022-11-21T23:40:27.343Z,3.08
2022-11-21T23:42:53.937Z,2.92
2022-11-21T23:45:20.666Z,3.05
2022-11-21T23:47:48.195Z,2.72
2022-11-21T23:50:15.714Z,3.17
2022-11-21T23:52:42.405Z,2.95
2022-11-21T23:55:09.160Z,2.90
2022-11-21T23:57:35.803Z,2.90
